sensor_id;sensor_type;location;lat;lon;timestamp;pressure;altitude;pressure_sealevel;temperature;humidity
38900;BME280;24660;43.238;26.576;2022-09-06T00:00:14;100121.50;;;13.95;100.00
38900;BME280;24660;43.238;26.576;2022-09-06T00:02:39;100124.38;;;13.82;100.00
38900;BME280;24660;43.238;26.576;2022-09-06T00:05:05;100116.16;;;13.84;100.00
38900;BME280;24660;43.238;26.576;2022-09-06T00:07:31;100107.03;;;13.75;100.00
38900;BME280;24660;43.238;26.576;2022-09-06T00:09:56;100110.72;;;13.63;100.00
38900;BME280;24660;43.238;26.576;2022-09-06T00:12:22;100127.25;;;13.58;100.00
38900;BME280;24660;43.238;26.576;2022-09-06T00:14:48;100119.88;;;13.72;100.00
38900;BME280;24660;43.238;26.576;2022-09-06T00:17:13;100121.06;;;14.11;100.00
38900;BME280;24660;43.238;26.576;2022-09-06T00:19:39;100113.97;;;14.10;100.00
38900;BME280;24660;43.238;26.576;2022-09-06T00:22:04;100110.88;;;13.93;100.00
38900;BME280;24660;43.238;26.576;2022-09-06T00:24:29;100109.09;;;14.04;100.00
38900;BME280;24660;43.238;26.576;2022-09-06T00:26:55;100106.38;;;13.94;100.00
38900;BME280;24660;43.238;26.576;2022-09-06T00:29:20;100104.59;;;14.04;100.00
38900;BME280;24660;43.238;26.576;2022-09-06T00:31:45;100105.75;;;14.32;100.00
38900;BME280;24660;43.238;26.576;2022-09-06T00:34:11;100089.59;;;14.22;100.00
38900;BME280;24660;43.238;26.576;2022-09-06T00:36:36;100092.94;;;14.36;100.00
38900;BME280;24660;43.238;26.576;2022-09-06T00:39:01;100091.28;;;14.03;100.00
38900;BME280;24660;43.238;26.576;2022-09-06T00:41:27;100101.72;;;13.96;100.00
38900;BME280;24660;43.238;26.576;2022-09-06T00:43:52;100097.59;;;14.54;100.00
38900;BME280;24660;43.238;26.576;2022-09-06T00:46:20;100092.16;;;14.45;100.00
38900;BME280;24660;43.238;26.576;2022-09-06T00:48:48;100088.47;;;14.46;100.00
38900;BME280;24660;43.238;26.576;2022-09-06T00:51:14;100090.38;;;14.55;100.00
38900;BME280;24660;43.238;26.576;2022-09-06T00:53:40;100092.31;;;14.32;100.00
38900;BME280;24660;43.238;26.576;2022-09-06T00:56:06;100083.47;;;14.20;100.00
38900;BME280;24660;43.238;26.576;2022-09-06T00:58:31;100088.00;;;14.41;100.00
38900;BME280;24660;43.238;26.576;2022-09-06T01:00:57;100089.81;;;14.61;100.00
38900;BME280;24660;43.238;26.576;2022-09-06T01:03:23;100083.22;;;14.65;100.00
38900;BME280;24660;43.238;26.576;2022-09-06T01:05:53;100082.63;;;14.41;100.00
38900;BME280;24660;43.238;26.576;2022-09-06T01:13:42;100094.50;;;14.38;100.00
38900;BME280;24660;43.238;26.576;2022-09-06T01:16:13;100096.72;;;14.33;100.00
38900;BME280;24660;43.238;26.576;2022-09-06T01:18:49;100106.88;;;14.30;100.00
38900;BME280;24660;43.238;26.576;2022-09-06T01:28:49;100101.69;;;14.79;100.00
38900;BME280;24660;43.238;26.576;2022-09-06T01:31:19;100102.13;;;14.54;100.00
38900;BME280;24660;43.238;26.576;2022-09-06T01:34:10;100100.06;;;14.67;100.00
38900;BME280;24660;43.238;26.576;2022-09-06T01:36:42;100098.00;;;14.50;100.00
38900;BME280;24660;43.238;26.576;2022-09-06T01:39:22;100095.63;;;14.36;100.00
38900;BME280;24660;43.238;26.576;2022-09-06T01:41:48;100102.44;;;14.61;100.00
38900;BME280;24660;43.238;26.576;2022-09-06T01:44:14;100098.41;;;14.76;100.00
38900;BME280;24660;43.238;26.576;2022-09-06T01:46:43;100093.47;;;14.81;100.00
38900;BME280;24660;43.238;26.576;2022-09-06T01:51:50;100090.69;;;14.41;100.00
38900;BME280;24660;43.238;26.576;2022-09-06T01:54:25;100085.31;;;13.99;100.00
38900;BME280;24660;43.238;26.576;2022-09-06T01:56:57;100086.44;;;14.17;100.00
38900;BME280;24660;43.238;26.576;2022-09-06T02:02:10;100098.53;;;14.44;100.00
38900;BME280;24660;43.238;26.576;2022-09-06T02:04:55;100083.28;;;14.12;100.00
38900;BME280;24660;43.238;26.576;2022-09-06T02:07:25;100085.84;;;14.14;100.00
38900;BME280;24660;43.238;26.576;2022-09-06T02:09:52;100072.31;;;14.04;100.00
38900;BME280;24660;43.238;26.576;2022-09-06T02:12:18;100065.97;;;13.84;100.00
38900;BME280;24660;43.238;26.576;2022-09-06T02:14:48;100073.63;;;13.89;100.00
38900;BME280;24660;43.238;26.576;2022-09-06T02:17:16;100064.72;;;13.68;100.00
38900;BME280;24660;43.238;26.576;2022-09-06T02:19:48;100066.56;;;13.56;100.00
38900;BME280;24660;43.238;26.576;2022-09-06T02:22:17;100072.38;;;13.40;100.00
38900;BME280;24660;43.238;26.576;2022-09-06T02:24:44;100064.31;;;13.40;100.00
38900;BME280;24660;43.238;26.576;2022-09-06T02:27:11;100079.06;;;13.46;100.00
38900;BME280;24660;43.238;26.576;2022-09-06T02:29:36;100085.88;;;13.82;100.00
38900;BME280;24660;43.238;26.576;2022-09-06T02:32:07;100079.44;;;13.73;100.00
38900;BME280;24660;43.238;26.576;2022-09-06T02:34:37;100084.09;;;13.92;100.00
38900;BME280;24660;43.238;26.576;2022-09-06T02:37:04;100080.53;;;13.82;100.00
38900;BME280;24660;43.238;26.576;2022-09-06T02:39:30;100084.50;;;13.87;100.00
38900;BME280;24660;43.238;26.576;2022-09-06T02:41:55;100077.69;;;13.83;100.00
38900;BME280;24660;43.238;26.576;2022-09-06T02:44:20;100080.56;;;13.91;100.00
38900;BME280;24660;43.238;26.576;2022-09-06T02:46:46;100074.34;;;13.70;100.00
38900;BME280;24660;43.238;26.576;2022-09-06T02:49:11;100067.72;;;13.74;100.00
38900;BME280;24660;43.238;26.576;2022-09-06T02:51:37;100074.81;;;13.32;100.00
38900;BME280;24660;43.238;26.576;2022-09-06T02:54:03;100075.66;;;13.32;100.00
38900;BME280;24660;43.238;26.576;2022-09-06T02:56:28;100076.91;;;13.06;100.00
38900;BME280;24660;43.238;26.576;2022-09-06T02:58:54;100083.63;;;13.00;100.00
38900;BME280;24660;43.238;26.576;2022-09-06T03:01:19;100092.06;;;12.96;100.00
38900;BME280;24660;43.238;26.576;2022-09-06T03:03:44;100091.81;;;13.10;100.00
38900;BME280;24660;43.238;26.576;2022-09-06T03:06:10;100083.25;;;13.27;100.00
38900;BME280;24660;43.238;26.576;2022-09-06T03:08:35;100080.81;;;13.13;100.00
38900;BME280;24660;43.238;26.576;2022-09-06T03:11:01;100084.63;;;12.88;100.00
38900;BME280;24660;43.238;26.576;2022-09-06T03:13:26;100085.34;;;13.13;100.00
38900;BME280;24660;43.238;26.576;2022-09-06T03:15:53;100097.16;;;13.21;100.00
38900;BME280;24660;43.238;26.576;2022-09-06T03:18:19;100092.41;;;12.91;100.00
38900;BME280;24660;43.238;26.576;2022-09-06T03:20:44;100087.31;;;12.99;100.00
38900;BME280;24660;43.238;26.576;2022-09-06T03:23:10;100089.84;;;13.12;100.00
38900;BME280;24660;43.238;26.576;2022-09-06T03:25:35;100085.09;;;13.04;100.00
38900;BME280;24660;43.238;26.576;2022-09-06T03:28:01;100087.28;;;13.11;100.00
38900;BME280;24660;43.238;26.576;2022-09-06T03:30:26;100089.25;;;12.97;100.00
38900;BME280;24660;43.238;26.576;2022-09-06T03:32:51;100081.81;;;13.12;100.00
38900;BME280;24660;43.238;26.576;2022-09-06T03:35:16;100080.47;;;12.73;100.00
38900;BME280;24660;43.238;26.576;2022-09-06T03:37:42;100090.84;;;12.66;100.00
38900;BME280;24660;43.238;26.576;2022-09-06T03:40:07;100098.88;;;13.00;100.00
38900;BME280;24660;43.238;26.576;2022-09-06T03:42:33;100091.09;;;12.74;100.00
38900;BME280;24660;43.238;26.576;2022-09-06T03:44:58;100089.88;;;12.67;100.00
38900;BME280;24660;43.238;26.576;2022-09-06T03:47:23;100092.56;;;12.56;100.00
38900;BME280;24660;43.238;26.576;2022-09-06T03:49:49;100100.94;;;12.52;100.00
38900;BME280;24660;43.238;26.576;2022-09-06T03:52:15;100099.75;;;12.78;100.00
38900;BME280;24660;43.238;26.576;2022-09-06T03:54:41;100104.63;;;12.73;100.00
38900;BME280;24660;43.238;26.576;2022-09-06T03:57:06;100110.47;;;13.00;100.00
38900;BME280;24660;43.238;26.576;2022-09-06T03:59:32;100096.97;;;12.68;100.00
38900;BME280;24660;43.238;26.576;2022-09-06T04:01:57;100104.75;;;12.60;100.00
38900;BME280;24660;43.238;26.576;2022-09-06T04:04:22;100110.09;;;12.49;100.00
38900;BME280;24660;43.238;26.576;2022-09-06T04:06:48;100115.72;;;12.57;100.00
38900;BME280;24660;43.238;26.576;2022-09-06T04:09:13;100113.16;;;12.78;100.00
38900;BME280;24660;43.238;26.576;2022-09-06T04:11:39;100115.34;;;13.06;100.00
38900;BME280;24660;43.238;26.576;2022-09-06T04:14:04;100112.06;;;13.14;100.00
38900;BME280;24660;43.238;26.576;2022-09-06T04:16:30;100112.88;;;13.37;100.00
38900;BME280;24660;43.238;26.576;2022-09-06T04:18:55;100105.06;;;13.45;100.00
38900;BME280;24660;43.238;26.576;2022-09-06T04:21:22;100103.03;;;12.93;100.00
38900;BME280;24660;43.238;26.576;2022-09-06T04:23:47;100110.47;;;13.00;100.00
38900;BME280;24660;43.238;26.576;2022-09-06T04:26:12;100111.66;;;13.07;100.00
38900;BME280;24660;43.238;26.576;2022-09-06T04:28:38;100112.44;;;12.87;100.00
38900;BME280;24660;43.238;26.576;2022-09-06T04:31:03;100119.22;;;13.36;100.00
38900;BME280;24660;43.238;26.576;2022-09-06T04:33:29;100111.31;;;13.34;100.00
38900;BME280;24660;43.238;26.576;2022-09-06T04:35:55;100118.91;;;12.85;100.00
38900;BME280;24660;43.238;26.576;2022-09-06T04:38:22;100136.81;;;13.06;100.00
38900;BME280;24660;43.238;26.576;2022-09-06T04:40:47;100140.72;;;13.36;100.00
38900;BME280;24660;43.238;26.576;2022-09-06T04:43:13;100139.00;;;13.35;100.00
38900;BME280;24660;43.238;26.576;2022-09-06T04:45:38;100135.72;;;13.31;100.00
38900;BME280;24660;43.238;26.576;2022-09-06T04:48:03;100139.41;;;13.74;100.00
38900;BME280;24660;43.238;26.576;2022-09-06T04:50:29;100134.50;;;13.79;100.00
38900;BME280;24660;43.238;26.576;2022-09-06T04:52:57;100140.59;;;14.13;100.00
38900;BME280;24660;43.238;26.576;2022-09-06T04:55:22;100124.09;;;13.53;100.00
38900;BME280;24660;43.238;26.576;2022-09-06T04:57:49;100125.69;;;13.45;100.00
38900;BME280;24660;43.238;26.576;2022-09-06T05:00:14;100125.22;;;14.04;100.00
38900;BME280;24660;43.238;26.576;2022-09-06T05:02:40;100113.53;;;14.25;100.00
38900;BME280;24660;43.238;26.576;2022-09-06T05:05:06;100104.88;;;14.22;100.00
38900;BME280;24660;43.238;26.576;2022-09-06T05:07:32;100102.56;;;14.38;100.00
38900;BME280;24660;43.238;26.576;2022-09-06T05:09:57;100106.94;;;14.91;100.00
38900;BME280;24660;43.238;26.576;2022-09-06T05:12:22;100094.78;;;15.46;100.00
38900;BME280;24660;43.238;26.576;2022-09-06T05:14:47;100080.38;;;15.86;100.00
38900;BME280;24660;43.238;26.576;2022-09-06T05:17:13;100072.16;;;15.97;100.00
38900;BME280;24660;43.238;26.576;2022-09-06T05:19:39;100073.72;;;15.80;100.00
38900;BME280;24660;43.238;26.576;2022-09-06T05:22:04;100080.66;;;16.12;100.00
38900;BME280;24660;43.238;26.576;2022-09-06T05:24:29;100070.03;;;16.57;100.00
38900;BME280;24660;43.238;26.576;2022-09-06T05:26:54;100068.31;;;16.66;100.00
38900;BME280;24660;43.238;26.576;2022-09-06T05:29:20;100068.91;;;16.69;100.00
38900;BME280;24660;43.238;26.576;2022-09-06T05:31:45;100072.28;;;16.71;100.00
38900;BME280;24660;43.238;26.576;2022-09-06T05:34:10;100071.81;;;16.39;100.00
38900;BME280;24660;43.238;26.576;2022-09-06T05:36:37;100073.13;;;16.72;100.00
38900;BME280;24660;43.238;26.576;2022-09-06T05:39:02;100074.19;;;16.88;100.00
38900;BME280;24660;43.238;26.576;2022-09-06T05:41:28;100068.34;;;16.56;100.00
38900;BME280;24660;43.238;26.576;2022-09-06T05:43:53;100070.91;;;16.67;100.00
38900;BME280;24660;43.238;26.576;2022-09-06T05:46:19;100073.41;;;16.78;100.00
38900;BME280;24660;43.238;26.576;2022-09-06T05:48:50;100069.88;;;17.05;100.00
38900;BME280;24660;43.238;26.576;2022-09-06T05:51:15;100067.72;;;16.81;100.00
38900;BME280;24660;43.238;26.576;2022-09-06T05:53:42;100062.72;;;17.14;100.00
38900;BME280;24660;43.238;26.576;2022-09-06T05:56:08;100061.66;;;17.25;100.00
38900;BME280;24660;43.238;26.576;2022-09-06T05:58:33;100069.06;;;17.23;100.00
38900;BME280;24660;43.238;26.576;2022-09-06T06:01:12;100073.50;;;17.14;100.00
38900;BME280;24660;43.238;26.576;2022-09-06T06:03:38;100067.16;;;17.33;100.00
38900;BME280;24660;43.238;26.576;2022-09-06T06:06:04;100068.78;;;17.43;100.00
38900;BME280;24660;43.238;26.576;2022-09-06T06:08:29;100063.53;;;18.13;100.00
38900;BME280;24660;43.238;26.576;2022-09-06T06:11:02;100059.25;;;18.28;100.00
38900;BME280;24660;43.238;26.576;2022-09-06T06:13:28;100063.34;;;18.58;100.00
38900;BME280;24660;43.238;26.576;2022-09-06T06:15:54;100053.03;;;18.62;100.00
38900;BME280;24660;43.238;26.576;2022-09-06T06:18:19;100047.69;;;18.18;99.12
38900;BME280;24660;43.238;26.576;2022-09-06T06:20:45;100055.63;;;17.76;100.00
38900;BME280;24660;43.238;26.576;2022-09-06T06:23:10;100055.50;;;17.32;100.00
38900;BME280;24660;43.238;26.576;2022-09-06T06:25:35;100055.91;;;17.55;100.00
38900;BME280;24660;43.238;26.576;2022-09-06T06:28:01;100063.09;;;18.00;100.00
38900;BME280;24660;43.238;26.576;2022-09-06T06:30:26;100062.50;;;18.32;100.00
38900;BME280;24660;43.238;26.576;2022-09-06T06:32:51;100062.81;;;18.55;100.00
38900;BME280;24660;43.238;26.576;2022-09-06T06:35:17;100058.75;;;18.77;97.44
38900;BME280;24660;43.238;26.576;2022-09-06T06:37:42;100060.00;;;18.90;97.12
38900;BME280;24660;43.238;26.576;2022-09-06T06:40:08;100059.44;;;18.79;95.60
38900;BME280;24660;43.238;26.576;2022-09-06T06:42:34;100053.44;;;19.09;95.54
38900;BME280;24660;43.238;26.576;2022-09-06T06:44:59;100059.22;;;19.06;95.32
38900;BME280;24660;43.238;26.576;2022-09-06T06:47:24;100057.75;;;19.28;93.92
38900;BME280;24660;43.238;26.576;2022-09-06T06:49:50;100055.41;;;19.41;93.28
38900;BME280;24660;43.238;26.576;2022-09-06T06:52:15;100061.34;;;18.94;92.49
38900;BME280;24660;43.238;26.576;2022-09-06T06:54:41;100059.25;;;18.80;93.11
38900;BME280;24660;43.238;26.576;2022-09-06T06:57:06;100059.78;;;19.26;94.36
38900;BME280;24660;43.238;26.576;2022-09-06T06:59:33;100062.81;;;19.73;91.87
38900;BME280;24660;43.238;26.576;2022-09-06T07:01:59;100067.47;;;19.47;91.11
38900;BME280;24660;43.238;26.576;2022-09-06T07:04:24;100070.66;;;19.42;90.61
38900;BME280;24660;43.238;26.576;2022-09-06T07:09:15;100058.22;;;19.74;90.33
38900;BME280;24660;43.238;26.576;2022-09-06T07:11:42;100068.06;;;20.15;88.35
38900;BME280;24660;43.238;26.576;2022-09-06T07:14:07;100070.28;;;20.04;87.11
38900;BME280;24660;43.238;26.576;2022-09-06T07:16:33;100076.50;;;19.64;86.87
38900;BME280;24660;43.238;26.576;2022-09-06T07:18:58;100085.19;;;19.83;87.82
38900;BME280;24660;43.238;26.576;2022-09-06T07:21:24;100086.88;;;20.25;86.64
38900;BME280;24660;43.238;26.576;2022-09-06T07:23:51;100090.41;;;20.74;83.69
38900;BME280;24660;43.238;26.576;2022-09-06T07:26:18;100097.94;;;19.99;84.89
38900;BME280;24660;43.238;26.576;2022-09-06T07:28:44;100085.19;;;19.83;87.58
38900;BME280;24660;43.238;26.576;2022-09-06T07:31:10;100093.81;;;19.79;88.19
38900;BME280;24660;43.238;26.576;2022-09-06T07:33:36;100096.53;;;19.71;87.21
38900;BME280;24660;43.238;26.576;2022-09-06T07:36:02;100098.94;;;19.90;88.64
38900;BME280;24660;43.238;26.576;2022-09-06T07:38:28;100100.31;;;20.19;88.42
38900;BME280;24660;43.238;26.576;2022-09-06T07:40:56;100099.59;;;20.73;82.42
38900;BME280;24660;43.238;26.576;2022-09-06T07:43:22;100093.81;;;20.68;81.88
38900;BME280;24660;43.238;26.576;2022-09-06T07:45:48;100098.75;;;21.28;81.45
38900;BME280;24660;43.238;26.576;2022-09-06T07:48:21;100085.81;;;21.30;76.99
38900;BME280;24660;43.238;26.576;2022-09-06T07:50:46;100081.75;;;21.18;73.91
38900;BME280;24660;43.238;26.576;2022-09-06T07:53:12;100082.97;;;20.52;75.74
38900;BME280;24660;43.238;26.576;2022-09-06T07:55:37;100090.94;;;20.62;76.77
38900;BME280;24660;43.238;26.576;2022-09-06T07:58:03;100093.00;;;20.52;77.36
38900;BME280;24660;43.238;26.576;2022-09-06T08:00:28;100093.19;;;20.50;76.69
38900;BME280;24660;43.238;26.576;2022-09-06T08:02:53;100089.63;;;20.58;77.34
38900;BME280;24660;43.238;26.576;2022-09-06T08:05:19;100097.38;;;20.77;76.74
38900;BME280;24660;43.238;26.576;2022-09-06T08:07:44;100097.19;;;20.79;75.96
38900;BME280;24660;43.238;26.576;2022-09-06T08:10:09;100090.47;;;21.14;76.08
38900;BME280;24660;43.238;26.576;2022-09-06T08:12:38;100087.03;;;21.28;74.54
38900;BME280;24660;43.238;26.576;2022-09-06T08:15:04;100078.22;;;21.49;71.38
38900;BME280;24660;43.238;26.576;2022-09-06T08:17:29;100079.84;;;21.35;68.50
38900;BME280;24660;43.238;26.576;2022-09-06T08:19:59;100082.25;;;21.22;68.82
38900;BME280;24660;43.238;26.576;2022-09-06T08:22:24;100079.34;;;20.84;70.82
38900;BME280;24660;43.238;26.576;2022-09-06T08:24:49;100081.78;;;20.63;69.87
38900;BME280;24660;43.238;26.576;2022-09-06T08:27:15;100083.72;;;20.93;67.92
38900;BME280;24660;43.238;26.576;2022-09-06T08:29:40;100077.84;;;21.21;68.16
38900;BME280;24660;43.238;26.576;2022-09-06T08:32:05;100085.88;;;21.14;66.23
38900;BME280;24660;43.238;26.576;2022-09-06T08:34:31;100086.38;;;21.57;66.17
38900;BME280;24660;43.238;26.576;2022-09-06T08:36:56;100076.75;;;21.92;61.76
38900;BME280;24660;43.238;26.576;2022-09-06T08:39:21;100077.06;;;21.74;62.98
38900;BME280;24660;43.238;26.576;2022-09-06T08:44:14;100077.78;;;21.68;60.05
38900;BME280;24660;43.238;26.576;2022-09-06T08:46:46;100072.09;;;22.01;57.10
38900;BME280;24660;43.238;26.576;2022-09-06T08:49:12;100059.28;;;21.86;56.26
38900;BME280;24660;43.238;26.576;2022-09-06T08:51:48;100065.66;;;22.39;53.07
38900;BME280;24660;43.238;26.576;2022-09-06T08:54:20;100065.13;;;22.59;52.95
38900;BME280;24660;43.238;26.576;2022-09-06T08:59:28;100056.59;;;22.91;48.65
38900;BME280;24660;43.238;26.576;2022-09-06T09:04:21;100051.69;;;22.42;49.62
38900;BME280;24660;43.238;26.576;2022-09-06T09:06:50;100055.75;;;22.23;47.25
38900;BME280;24660;43.238;26.576;2022-09-06T09:09:17;100048.16;;;21.96;49.87
38900;BME280;24660;43.238;26.576;2022-09-06T09:11:44;100048.44;;;22.01;49.62
38900;BME280;24660;43.238;26.576;2022-09-06T09:14:15;100037.81;;;22.14;45.17
38900;BME280;24660;43.238;26.576;2022-09-06T09:16:41;100037.63;;;22.16;49.25
38900;BME280;24660;43.238;26.576;2022-09-06T09:19:07;100047.16;;;22.64;49.95
38900;BME280;24660;43.238;26.576;2022-09-06T09:21:35;100041.22;;;22.84;46.66
38900;BME280;24660;43.238;26.576;2022-09-06T09:24:02;100046.50;;;22.77;47.89
38900;BME280;24660;43.238;26.576;2022-09-06T09:26:30;100042.81;;;22.26;47.43
38900;BME280;24660;43.238;26.576;2022-09-06T09:31:38;100034.56;;;22.48;44.18
38900;BME280;24660;43.238;26.576;2022-09-06T09:34:04;100041.72;;;22.49;47.12
38900;BME280;24660;43.238;26.576;2022-09-06T09:36:30;100039.72;;;22.29;45.45
38900;BME280;24660;43.238;26.576;2022-09-06T09:38:55;100036.75;;;22.53;43.75
38900;BME280;24660;43.238;26.576;2022-09-06T09:41:31;100031.81;;;22.86;42.38
38900;BME280;24660;43.238;26.576;2022-09-06T09:51:29;100020.34;;;23.27;46.49
38900;BME280;24660;43.238;26.576;2022-09-06T09:53:56;100019.47;;;22.90;47.48
38900;BME280;24660;43.238;26.576;2022-09-06T09:56:26;100014.59;;;22.86;48.13
38900;BME280;24660;43.238;26.576;2022-09-06T09:58:53;100013.34;;;22.73;49.59
38900;BME280;24660;43.238;26.576;2022-09-06T10:01:21;100004.91;;;22.98;48.46
38900;BME280;24660;43.238;26.576;2022-09-06T10:03:47;100002.38;;;22.96;48.78
38900;BME280;24660;43.238;26.576;2022-09-06T10:06:15;100000.13;;;23.21;48.68
38900;BME280;24660;43.238;26.576;2022-09-06T10:08:52;99996.84;;;23.26;45.65
38900;BME280;24660;43.238;26.576;2022-09-06T10:11:36;100002.41;;;23.75;46.53
38900;BME280;24660;43.238;26.576;2022-09-06T10:14:10;100000.22;;;23.28;46.97
38900;BME280;24660;43.238;26.576;2022-09-06T10:16:40;100003.56;;;22.79;48.66
38900;BME280;24660;43.238;26.576;2022-09-06T10:19:20;99993.72;;;23.29;47.51
38900;BME280;24660;43.238;26.576;2022-09-06T10:21:45;99991.91;;;23.36;45.00
38900;BME280;24660;43.238;26.576;2022-09-06T10:26:58;99985.66;;;23.21;44.87
38900;BME280;24660;43.238;26.576;2022-09-06T10:29:34;99984.00;;;23.41;46.03
38900;BME280;24660;43.238;26.576;2022-09-06T10:47:20;99984.53;;;23.94;45.11
38900;BME280;24660;43.238;26.576;2022-09-06T10:49:49;99972.06;;;24.13;45.13
38900;BME280;24660;43.238;26.576;2022-09-06T10:52:20;99979.84;;;24.37;46.35
38900;BME280;24660;43.238;26.576;2022-09-06T10:54:47;99973.25;;;24.60;43.88
38900;BME280;24660;43.238;26.576;2022-09-06T11:04:44;99965.59;;;24.48;44.22
38900;BME280;24660;43.238;26.576;2022-09-06T11:07:19;99952.59;;;24.92;43.97
38900;BME280;24660;43.238;26.576;2022-09-06T11:09:52;99953.59;;;24.91;44.99
38900;BME280;24660;43.238;26.576;2022-09-06T11:12:30;99950.91;;;24.49;45.80
38900;BME280;24660;43.238;26.576;2022-09-06T11:14:56;99950.53;;;25.00;43.21
38900;BME280;24660;43.238;26.576;2022-09-06T11:19:48;99946.94;;;24.24;45.87
38900;BME280;24660;43.238;26.576;2022-09-06T11:22:26;99937.59;;;24.12;45.24
38900;BME280;24660;43.238;26.576;2022-09-06T11:27:27;99942.44;;;25.53;43.23
38900;BME280;24660;43.238;26.576;2022-09-06T11:29:57;99928.09;;;25.31;45.34
38900;BME280;24660;43.238;26.576;2022-09-06T11:32:31;99928.53;;;25.41;44.22
38900;BME280;24660;43.238;26.576;2022-09-06T11:34:58;99928.19;;;25.78;43.47
38900;BME280;24660;43.238;26.576;2022-09-06T11:37:26;99934.25;;;25.99;43.97
38900;BME280;24660;43.238;26.576;2022-09-06T11:42:38;99927.84;;;25.06;46.11
38900;BME280;24660;43.238;26.576;2022-09-06T11:47:36;99925.13;;;26.45;44.14
38900;BME280;24660;43.238;26.576;2022-09-06T11:55:29;99910.44;;;26.13;42.05
38900;BME280;24660;43.238;26.576;2022-09-06T11:57:55;99911.16;;;26.60;42.74
38900;BME280;24660;43.238;26.576;2022-09-06T12:00:22;99909.59;;;26.13;42.39
38900;BME280;24660;43.238;26.576;2022-09-06T12:02:48;99907.91;;;26.18;42.36
38900;BME280;24660;43.238;26.576;2022-09-06T12:05:15;99905.75;;;26.27;42.09
38900;BME280;24660;43.238;26.576;2022-09-06T12:10:47;99898.81;;;26.89;40.90
38900;BME280;24660;43.238;26.576;2022-09-06T12:15:51;99905.44;;;26.68;40.54
38900;BME280;24660;43.238;26.576;2022-09-06T12:21:00;99895.47;;;26.02;39.40
38900;BME280;24660;43.238;26.576;2022-09-06T12:23:45;99883.47;;;26.10;39.96
38900;BME280;24660;43.238;26.576;2022-09-06T12:26:10;99885.09;;;26.38;40.60
38900;BME280;24660;43.238;26.576;2022-09-06T12:28:41;99878.25;;;26.60;39.36
38900;BME280;24660;43.238;26.576;2022-09-06T12:33:47;99873.66;;;26.60;39.75
38900;BME280;24660;43.238;26.576;2022-09-06T12:36:14;99881.09;;;26.27;40.54
38900;BME280;24660;43.238;26.576;2022-09-06T12:38:52;99874.22;;;26.04;40.98
38900;BME280;24660;43.238;26.576;2022-09-06T12:41:18;99862.63;;;25.89;40.92
38900;BME280;24660;43.238;26.576;2022-09-06T12:43:43;99866.41;;;26.01;41.25
38900;BME280;24660;43.238;26.576;2022-09-06T12:46:08;99866.94;;;26.50;40.38
38900;BME280;24660;43.238;26.576;2022-09-06T12:48:34;99861.44;;;26.88;40.30
38900;BME280;24660;43.238;26.576;2022-09-06T12:51:07;99860.22;;;26.84;40.29
38900;BME280;24660;43.238;26.576;2022-09-06T12:53:34;99859.13;;;26.91;38.49
38900;BME280;24660;43.238;26.576;2022-09-06T12:56:01;99859.09;;;26.53;38.11
38900;BME280;24660;43.238;26.576;2022-09-06T12:58:27;99862.63;;;26.67;38.60
38900;BME280;24660;43.238;26.576;2022-09-06T13:00:53;99860.34;;;26.64;37.97
38900;BME280;24660;43.238;26.576;2022-09-06T13:06:01;99863.50;;;28.30;36.42
38900;BME280;24660;43.238;26.576;2022-09-06T13:08:32;99866.84;;;30.06;33.96
38900;BME280;24660;43.238;26.576;2022-09-06T13:10:59;99859.38;;;31.89;32.01
38900;BME280;24660;43.238;26.576;2022-09-06T13:13:24;99858.31;;;32.29;30.19
38900;BME280;24660;43.238;26.576;2022-09-06T13:15:50;99843.88;;;31.09;31.24
38900;BME280;24660;43.238;26.576;2022-09-06T13:18:19;99867.34;;;33.12;30.31
38900;BME280;24660;43.238;26.576;2022-09-06T13:20:55;99860.72;;;32.25;30.79
38900;BME280;24660;43.238;26.576;2022-09-06T13:23:20;99856.31;;;32.46;30.02
38900;BME280;24660;43.238;26.576;2022-09-06T13:25:47;99856.97;;;32.31;29.88
38900;BME280;24660;43.238;26.576;2022-09-06T13:28:22;99856.00;;;32.04;30.84
38900;BME280;24660;43.238;26.576;2022-09-06T13:30:47;99836.41;;;31.10;31.48
38900;BME280;24660;43.238;26.576;2022-09-06T13:33:26;99852.97;;;32.44;30.58
38900;BME280;24660;43.238;26.576;2022-09-06T13:36:03;99849.31;;;33.36;29.03
38900;BME280;24660;43.238;26.576;2022-09-06T13:38:32;99845.66;;;32.16;30.59
38900;BME280;24660;43.238;26.576;2022-09-06T13:40:59;99844.59;;;31.50;31.11
38900;BME280;24660;43.238;26.576;2022-09-06T13:43:25;99833.09;;;29.45;33.77
38900;BME280;24660;43.238;26.576;2022-09-06T13:48:32;99837.09;;;28.29;36.36
38900;BME280;24660;43.238;26.576;2022-09-06T13:50:57;99837.00;;;29.26;35.33
38900;BME280;24660;43.238;26.576;2022-09-06T13:53:23;99841.28;;;30.22;33.77
38900;BME280;24660;43.238;26.576;2022-09-06T13:55:48;99823.25;;;28.36;34.13
38900;BME280;24660;43.238;26.576;2022-09-06T13:58:13;99813.88;;;28.00;34.53
38900;BME280;24660;43.238;26.576;2022-09-06T14:00:39;99815.16;;;28.71;35.44
38900;BME280;24660;43.238;26.576;2022-09-06T14:03:05;99815.94;;;31.06;31.06
38900;BME280;24660;43.238;26.576;2022-09-06T14:05:31;99819.41;;;31.80;30.15
38900;BME280;24660;43.238;26.576;2022-09-06T14:07:58;99821.00;;;32.53;29.36
38900;BME280;24660;43.238;26.576;2022-09-06T14:10:23;99815.19;;;31.94;29.92
38900;BME280;24660;43.238;26.576;2022-09-06T14:12:49;99813.78;;;32.52;29.39